Time;durP1;ratioP1;P1;durP2;ratioP2;P2;SDS_P1;SDS_P2;PMS_P1;PMS_P2;Temp;Humidity;BMP_temperature;BMP_pressure;BME280_temperature;BME280_humidity;BME280_pressure;Samples;Min_cycle;Max_cycle;Signal;HPM_P1;HPM_P2
2021/12/15 00:00:12;;;;;;;62.60;29.87;;;8.90;99.90;;;;;;5116111;28;20815;-69
2021/12/15 00:02:44;;;;;;;55.17;29.53;;;8.90;99.90;;;;;;5115939;28;20509;-69
2021/12/15 00:05:13;;;;;;;56.30;29.00;;;8.90;99.90;;;;;;5116067;28;20448;-69
2021/12/15 00:07:41;;;;;;;59.70;28.77;;;9.00;99.90;;;;;;5116166;28;20795;-69
2021/12/15 00:10:08;;;;;;;66.90;32.67;;;9.00;99.90;;;;;;5116211;28;20576;-69
2021/12/15 00:12:35;;;;;;;62.33;29.73;;;8.90;99.90;;;;;;5116069;28;20484;-69
2021/12/15 00:15:03;;;;;;;59.73;30.30;;;8.90;99.90;;;;;;5115508;28;20464;-69
2021/12/15 00:17:30;;;;;;;59.87;31.00;;;8.90;99.90;;;;;;5115925;28;20460;-68
2021/12/15 00:19:58;;;;;;;56.33;28.53;;;8.90;99.90;;;;;;5115848;28;20449;-69
2021/12/15 00:22:25;;;;;;;60.37;29.10;;;8.90;99.90;;;;;;5115733;28;20456;-69
2021/12/15 00:24:52;;;;;;;50.30;25.77;;;9.00;99.90;;;;;;5115299;28;20492;-69
2021/12/15 00:27:19;;;;;;;56.47;28.80;;;8.90;99.90;;;;;;5115565;28;20457;-69
2021/12/15 00:29:46;;;;;;;48.07;25.30;;;8.90;99.90;;;;;;5114594;28;21046;-67
2021/12/15 00:32:13;;;;;;;47.90;26.10;;;8.90;99.90;;;;;;5115080;28;20452;-68
2021/12/15 00:34:41;;;;;;;51.27;28.03;;;8.90;99.90;;;;;;5115082;28;20456;-69
2021/12/15 00:37:10;;;;;;;54.57;26.70;;;8.90;99.90;;;;;;5115259;28;20461;-69
2021/12/15 00:39:38;;;;;;;50.67;26.50;;;8.90;99.90;;;;;;5115494;28;20453;-69
2021/12/15 00:42:06;;;;;;;63.30;29.23;;;8.90;99.90;;;;;;5115201;28;20962;-69
2021/12/15 00:44:33;;;;;;;49.73;26.17;;;8.90;99.90;;;;;;5115272;28;20457;-69
2021/12/15 00:47:00;;;;;;;51.40;27.50;;;8.90;99.90;;;;;;5115511;28;20492;-68
2021/12/15 00:49:27;;;;;;;63.43;27.70;;;8.80;99.90;;;;;;5115249;28;20831;-69
2021/12/15 00:51:54;;;;;;;54.23;26.20;;;8.80;99.90;;;;;;5114688;28;20484;-68
2021/12/15 00:54:23;;;;;;;62.57;29.27;;;8.80;99.90;;;;;;5115325;28;20879;-68
2021/12/15 00:56:52;;;;;;;57.37;28.13;;;8.70;99.90;;;;;;5115298;28;20548;-69
2021/12/15 00:59:21;;;;;;;55.90;26.00;;;8.80;99.90;;;;;;5115124;28;20448;-68
2021/12/15 01:01:50;;;;;;;70.20;30.00;;;8.80;99.90;;;;;;5115101;28;20832;-69
2021/12/15 01:04:18;;;;;;;64.40;30.43;;;8.80;99.90;;;;;;5114764;28;20456;-69
2021/12/15 01:06:52;;;;;;;67.83;30.63;;;8.80;99.90;;;;;;5114780;28;20966;-68
2021/12/15 01:09:25;;;;;;;61.67;30.80;;;8.80;99.90;;;;;;5114902;28;20461;-69
2021/12/15 01:12:11;;;;;;;63.13;30.20;;;8.80;99.90;;;;;;5115000;28;20459;-68
2021/12/15 01:20:17;;;;;;;58.17;28.10;;;8.90;99.90;;;;;;5114789;28;20432;-69
2021/12/15 01:22:48;;;;;;;52.37;26.87;;;8.80;99.90;;;;;;5115010;28;20774;-69
2021/12/15 01:25:21;;;;;;;58.27;26.83;;;8.80;99.90;;;;;;5114403;28;20497;-69
2021/12/15 01:27:49;;;;;;;59.03;27.43;;;8.80;99.90;;;;;;5114966;28;20882;-69
2021/12/15 01:30:19;;;;;;;56.30;27.30;;;8.70;99.90;;;;;;5114427;28;20491;-70
2021/12/15 01:32:47;;;;;;;62.83;29.80;;;8.70;99.90;;;;;;5114741;28;20880;-68
2021/12/15 01:35:14;;;;;;;56.33;28.67;;;8.70;99.90;;;;;;5114760;28;20456;-69
2021/12/15 01:37:42;;;;;;;52.40;26.93;;;8.70;99.90;;;;;;5115337;28;20528;-69
2021/12/15 01:40:16;;;;;;;65.00;28.30;;;8.70;99.90;;;;;;5115036;28;20783;-69
2021/12/15 01:42:45;;;;;;;48.57;23.60;;;8.70;99.90;;;;;;5118282;28;20440;-69
2021/12/15 01:48:01;;;;;;;64.20;28.00;;;8.60;99.90;;;;;;5118909;28;20423;-69
2021/12/15 01:50:28;;;;;;;64.60;27.30;;;8.70;99.90;;;;;;5118059;28;20979;-69
2021/12/15 01:52:55;;;;;;;52.63;25.90;;;8.70;99.90;;;;;;5118518;27;20513;-68
2021/12/15 01:55:23;;;;;;;63.90;30.53;;;8.70;99.90;;;;;;5118294;28;20490;-69
2021/12/15 01:57:51;;;;;;;60.10;27.87;;;8.80;99.90;;;;;;5118267;28;20932;-68
2021/12/15 02:00:27;;;;;;;59.90;27.17;;;8.80;99.90;;;;;;5118377;28;20584;-68
2021/12/15 02:02:56;;;;;;;54.40;25.53;;;8.80;99.90;;;;;;5119080;28;20896;-68
2021/12/15 02:05:24;;;;;;;54.30;26.87;;;8.80;99.90;;;;;;5118653;28;20531;-69
2021/12/15 02:07:52;;;;;;;52.97;27.10;;;8.90;99.90;;;;;;5117980;28;20517;-69
2021/12/15 02:10:24;;;;;;;53.40;26.70;;;8.90;99.90;;;;;;5117862;28;20484;-69
2021/12/15 02:12:52;;;;;;;52.57;24.37;;;8.90;99.90;;;;;;5118382;28;20823;-68
2021/12/15 02:15:23;;;;;;;52.30;25.73;;;8.90;99.90;;;;;;5118148;28;20452;-68
2021/12/15 02:17:50;;;;;;;46.40;24.77;;;8.90;99.90;;;;;;5117760;28;20437;-69
2021/12/15 02:20:19;;;;;;;46.80;23.30;;;8.90;99.90;;;;;;5118975;28;20513;-68
2021/12/15 02:22:48;;;;;;;47.30;24.53;;;8.90;99.90;;;;;;5117739;28;20460;-68
2021/12/15 02:25:16;;;;;;;48.83;23.67;;;8.90;99.90;;;;;;5118069;27;20448;-68
2021/12/15 02:27:44;;;;;;;44.43;23.67;;;8.90;99.90;;;;;;5117997;28;20456;-68
2021/12/15 02:30:28;;;;;;;46.43;24.60;;;8.90;99.90;;;;;;5117932;28;20552;-68
2021/12/15 02:33:11;;;;;;;50.37;24.10;;;8.90;99.90;;;;;;5118001;28;20527;-69
2021/12/15 02:38:38;;;;;;;43.33;23.27;;;8.90;99.90;;;;;;5117855;28;20508;-68
2021/12/15 02:41:09;;;;;;;42.27;22.00;;;8.90;99.90;;;;;;5117657;28;20437;-68
2021/12/15 02:43:36;;;;;;;45.23;22.43;;;8.90;99.90;;;;;;5117975;28;20452;-68
2021/12/15 02:46:05;;;;;;;42.10;23.13;;;8.90;99.90;;;;;;5117362;28;20917;-69
2021/12/15 02:48:32;;;;;;;44.67;22.03;;;8.90;99.90;;;;;;5118059;28;20457;-69
2021/12/15 02:51:00;;;;;;;44.43;23.57;;;8.90;99.90;;;;;;5117637;28;20624;-69
2021/12/15 02:53:27;;;;;;;48.47;23.20;;;9.00;99.90;;;;;;5116674;28;20521;-69
2021/12/15 02:55:56;;;;;;;42.73;22.77;;;9.00;99.90;;;;;;5117414;28;20842;-69
2021/12/15 02:58:23;;;;;;;45.30;22.67;;;9.00;99.90;;;;;;5117115;28;20461;-69
2021/12/15 03:00:57;;;;;;;44.87;22.83;;;9.00;99.90;;;;;;5117350;28;20453;-69
2021/12/15 03:06:28;;;;;;;39.77;21.30;;;8.90;99.90;;;;;;5074889;28;20446;-69
2021/12/15 03:09:11;;;;;;;46.90;23.50;;;8.90;99.90;;;;;;5108714;28;20462;-68
2021/12/15 03:17:08;;;;;;;39.40;22.67;;;8.90;99.90;;;;;;5117264;28;20888;-68
2021/12/15 03:19:37;;;;;;;42.63;22.87;;;8.90;99.90;;;;;;5117025;28;20520;-68
2021/12/15 03:22:04;;;;;;;43.40;22.33;;;8.90;99.90;;;;;;5116392;27;20504;-68
2021/12/15 03:24:31;;;;;;;42.90;21.57;;;8.80;99.90;;;;;;5116955;28;20460;-68
2021/12/15 03:27:04;;;;;;;42.87;22.90;;;8.80;99.90;;;;;;5116605;27;20464;-69
2021/12/15 03:35:17;;;;;;;45.00;23.07;;;8.90;99.90;;;;;;5116708;28;20518;-69
2021/12/15 03:37:47;;;;;;;40.07;22.37;;;8.90;99.90;;;;;;5117051;28;20437;-69
2021/12/15 03:40:19;;;;;;;42.97;22.70;;;8.90;99.90;;;;;;5116908;28;20441;-69
2021/12/15 03:42:51;;;;;;;44.20;23.50;;;8.90;99.90;;;;;;5116415;28;20497;-68
2021/12/15 03:45:21;;;;;;;43.67;22.53;;;8.90;99.90;;;;;;5116572;28;20445;-68
2021/12/15 03:47:50;;;;;;;44.40;23.47;;;8.90;99.90;;;;;;5116140;28;20449;-69
2021/12/15 03:50:20;;;;;;;43.13;22.50;;;8.90;99.90;;;;;;5115754;28;20796;-69
2021/12/15 03:52:49;;;;;;;44.20;21.67;;;8.90;99.90;;;;;;5116104;28;20885;-69
2021/12/15 03:55:17;;;;;;;44.70;22.77;;;8.90;99.90;;;;;;5115932;28;20503;-69
2021/12/15 03:57:45;;;;;;;41.83;22.60;;;8.90;99.90;;;;;;5115902;28;20913;-69
2021/12/15 04:00:16;;;;;;;36.37;20.97;;;8.90;99.90;;;;;;5116458;28;20448;-69
2021/12/15 04:02:44;;;;;;;40.70;22.03;;;8.90;99.90;;;;;;5116115;27;20491;-68
2021/12/15 04:05:14;;;;;;;39.27;21.00;;;8.90;99.90;;;;;;5115550;28;20461;-68
2021/12/15 04:07:41;;;;;;;41.50;22.30;;;8.90;99.90;;;;;;5116510;28;20457;-69
2021/12/15 04:10:12;;;;;;;38.07;21.33;;;9.00;99.90;;;;;;5116049;28;20480;-68
2021/12/15 04:12:41;;;;;;;38.03;21.80;;;9.00;99.90;;;;;;5116209;28;20440;-69
2021/12/15 04:15:25;;;;;;;39.53;21.40;;;9.00;99.90;;;;;;5116103;28;20543;-68
2021/12/15 04:17:58;;;;;;;40.07;20.83;;;9.00;99.90;;;;;;5115856;28;20463;-68
2021/12/15 04:20:28;;;;;;;49.20;23.03;;;9.00;99.90;;;;;;5115877;28;20512;-68
2021/12/15 04:22:55;;;;;;;36.30;21.47;;;9.00;99.90;;;;;;5115424;28;20994;-68
2021/12/15 04:25:24;;;;;;;43.50;23.30;;;9.00;99.90;;;;;;5115638;27;20510;-68
2021/12/15 04:27:54;;;;;;;42.30;23.67;;;9.00;99.90;;;;;;5115293;28;20521;-68
2021/12/15 04:30:21;;;;;;;48.60;23.47;;;9.00;99.90;;;;;;5115264;28;20529;-68
2021/12/15 04:32:49;;;;;;;39.23;21.53;;;8.90;99.90;;;;;;5115555;28;20463;-69
2021/12/15 04:35:18;;;;;;;43.87;23.13;;;8.90;99.90;;;;;;5115633;28;20870;-69
2021/12/15 04:37:46;;;;;;;45.03;22.87;;;8.90;99.90;;;;;;5115706;28;20452;-69
2021/12/15 04:40:15;;;;;;;42.40;23.37;;;8.90;99.90;;;;;;5115122;28;20448;-68
2021/12/15 04:42:43;;;;;;;46.23;24.03;;;8.90;99.90;;;;;;5115382;28;20448;-68
2021/12/15 04:45:12;;;;;;;36.30;21.67;;;9.00;99.90;;;;;;5115114;28;20457;-68
2021/12/15 04:47:39;;;;;;;36.80;21.10;;;9.00;99.90;;;;;;5115524;28;20456;-68
2021/12/15 04:50:09;;;;;;;35.20;20.10;;;9.00;99.90;;;;;;5115227;28;20464;-68
2021/12/15 04:52:38;;;;;;;34.40;19.07;;;9.00;99.90;;;;;;5115232;27;20540;-68
2021/12/15 04:55:07;;;;;;;37.63;21.20;;;9.00;99.90;;;;;;5114907;28;20456;-68
2021/12/15 04:57:35;;;;;;;36.03;20.80;;;9.00;99.90;;;;;;5114672;28;20452;-69
2021/12/15 05:00:04;;;;;;;33.43;19.40;;;9.00;99.90;;;;;;5115487;28;20456;-69
2021/12/15 05:02:31;;;;;;;35.87;20.07;;;9.10;99.90;;;;;;5114726;28;20448;-68
2021/12/15 05:04:58;;;;;;;30.13;18.37;;;9.10;99.90;;;;;;5114570;28;20466;-69
2021/12/15 05:07:25;;;;;;;29.30;16.67;;;9.10;99.90;;;;;;5114707;28;20495;-68
2021/12/15 05:09:54;;;;;;;33.83;18.60;;;9.10;99.90;;;;;;5116219;28;20958;-68
2021/12/15 05:12:23;;;;;;;32.77;19.60;;;9.10;99.90;;;;;;5114714;28;20690;-68
2021/12/15 05:14:51;;;;;;;37.27;19.57;;;9.10;99.90;;;;;;5115178;28;20801;-69
2021/12/15 05:17:18;;;;;;;35.60;20.27;;;9.10;99.90;;;;;;5114316;28;20463;-70
2021/12/15 05:19:47;;;;;;;33.50;19.03;;;9.20;99.90;;;;;;5114814;28;20497;-68
2021/12/15 05:22:14;;;;;;;33.43;18.60;;;9.20;99.90;;;;;;5114916;28;20452;-68
2021/12/15 05:24:42;;;;;;;35.53;19.80;;;9.20;99.90;;;;;;5114536;28;20468;-68
2021/12/15 05:27:14;;;;;;;34.93;20.60;;;9.10;99.90;;;;;;5114590;28;20939;-68
2021/12/15 05:29:42;;;;;;;41.87;21.30;;;9.10;99.90;;;;;;5115579;28;20440;-69
2021/12/15 05:32:11;;;;;;;39.57;20.90;;;9.10;99.90;;;;;;5115388;28;20875;-67
2021/12/15 05:34:38;;;;;;;36.90;21.40;;;9.10;99.90;;;;;;5114811;28;20452;-68
2021/12/15 05:37:05;;;;;;;38.40;20.70;;;9.10;99.90;;;;;;5114812;28;20456;-68
2021/12/15 05:39:33;;;;;;;31.37;20.03;;;9.10;99.90;;;;;;5114554;28;20467;-69
2021/12/15 05:42:00;;;;;;;34.40;19.97;;;9.10;99.90;;;;;;5114553;28;20481;-69
2021/12/15 05:44:28;;;;;;;33.83;19.53;;;9.10;99.90;;;;;;5114334;28;20456;-68
2021/12/15 05:46:59;;;;;;;30.63;18.60;;;9.10;99.90;;;;;;5114801;28;20452;-69
2021/12/15 05:49:26;;;;;;;36.70;19.80;;;9.10;99.90;;;;;;5114486;28;20522;-69
2021/12/15 05:51:53;;;;;;;33.47;20.10;;;9.10;99.90;;;;;;5114338;28;20596;-69
2021/12/15 05:54:20;;;;;;;35.17;19.20;;;9.10;99.90;;;;;;5114917;28;20456;-68
2021/12/15 05:56:47;;;;;;;30.07;19.60;;;9.10;99.90;;;;;;5114431;28;20488;-69
2021/12/15 05:59:14;;;;;;;31.30;19.63;;;9.10;99.90;;;;;;5114194;28;20954;-69
2021/12/15 06:01:43;;;;;;;36.03;20.00;;;9.10;99.90;;;;;;5113925;28;20448;-69
2021/12/15 06:04:10;;;;;;;35.40;18.70;;;9.10;99.90;;;;;;5114393;28;20456;-68
2021/12/15 06:06:38;;;;;;;34.37;19.57;;;9.10;99.90;;;;;;5114195;28;20626;-68
2021/12/15 06:09:09;;;;;;;34.07;18.03;;;9.20;99.90;;;;;;5114134;28;20456;-68
2021/12/15 06:11:37;;;;;;;32.23;19.23;;;9.20;99.90;;;;;;5114193;28;20468;-69
2021/12/15 06:14:05;;;;;;;37.10;19.40;;;9.10;99.90;;;;;;5114187;28;20456;-68
2021/12/15 06:16:33;;;;;;;32.80;19.10;;;9.10;99.90;;;;;;5114110;28;20464;-68
2021/12/15 06:19:03;;;;;;;33.57;19.13;;;9.10;99.90;;;;;;5114661;28;20456;-68
2021/12/15 06:21:31;;;;;;;34.13;18.50;;;9.10;99.90;;;;;;5114277;28;20619;-68
2021/12/15 06:23:58;;;;;;;38.00;21.10;;;9.10;99.90;;;;;;5114447;28;20456;-68
2021/12/15 06:26:26;;;;;;;34.17;19.10;;;9.10;99.90;;;;;;5114284;28;20468;-68
2021/12/15 06:28:53;;;;;;;35.70;19.57;;;9.20;99.90;;;;;;5115720;28;20981;-68
2021/12/15 06:31:20;;;;;;;37.10;20.60;;;9.20;99.90;;;;;;5118059;28;20476;-68
2021/12/15 06:33:48;;;;;;;36.97;19.73;;;9.20;99.90;;;;;;5117503;28;20544;-68
2021/12/15 06:36:20;;;;;;;30.63;17.80;;;9.20;99.90;;;;;;5117823;28;20460;-69
2021/12/15 06:38:49;;;;;;;35.23;20.13;;;9.20;99.90;;;;;;5117678;28;20497;-69
2021/12/15 06:41:17;;;;;;;31.30;18.70;;;9.20;99.90;;;;;;5117661;28;20453;-69
2021/12/15 06:43:50;;;;;;;29.80;17.83;;;9.20;99.90;;;;;;5117890;28;20457;-69
2021/12/15 06:46:45;;;;;;;32.47;18.30;;;9.20;99.90;;;;;;5117626;28;20437;-69
2021/12/15 06:58:10;;;;;;;27.93;18.00;;;9.30;99.90;;;;;;5117304;28;20451;-67
2021/12/15 07:00:20;;;;;;;30.07;18.30;;;9.20;99.90;;;;;;5116884;28;20913;-68
2021/12/15 07:02:47;;;;;;;29.00;17.33;;;9.20;99.90;;;;;;5116828;28;20525;-69
2021/12/15 07:05:15;;;;;;;29.23;17.60;;;9.20;99.90;;;;;;5116708;28;20525;-69
2021/12/15 07:07:47;;;;;;;31.90;18.17;;;9.20;99.90;;;;;;5116558;28;20461;-69
2021/12/15 07:10:19;;;;;;;27.27;17.33;;;9.20;99.90;;;;;;5117535;28;20523;-69
2021/12/15 07:12:46;;;;;;;31.07;18.10;;;9.30;99.90;;;;;;5116554;28;20465;-67
2021/12/15 07:15:13;;;;;;;26.67;15.93;;;9.20;99.90;;;;;;5117035;28;20489;-68
2021/12/15 07:17:41;;;;;;;32.33;17.50;;;9.30;99.90;;;;;;5117082;28;20464;-68
2021/12/15 07:20:31;;;;;;;29.47;17.67;;;9.30;99.90;;;;;;5117318;28;20524;-69
2021/12/15 07:23:01;;;;;;;27.87;15.97;;;9.30;99.90;;;;;;5117161;28;20453;-68
2021/12/15 07:25:29;;;;;;;28.60;17.60;;;9.30;99.90;;;;;;5117629;28;20448;-68
2021/12/15 07:27:56;;;;;;;26.07;16.60;;;9.30;99.90;;;;;;5117409;28;20516;-68
2021/12/15 07:30:25;;;;;;;27.90;16.57;;;9.30;99.90;;;;;;5116933;28;20516;-69
2021/12/15 07:32:52;;;;;;;29.60;16.67;;;9.30;99.90;;;;;;5117875;28;20498;-68
2021/12/15 07:35:21;;;;;;;28.13;18.00;;;9.30;99.90;;;;;;5117191;28;20801;-69
2021/12/15 07:37:48;;;;;;;27.40;16.23;;;9.30;99.90;;;;;;5116802;28;20453;-69
2021/12/15 07:40:21;;;;;;;28.37;17.00;;;9.30;99.90;;;;;;5116221;28;20461;-69
2021/12/15 07:43:06;;;;;;;26.53;16.60;;;9.40;99.90;;;;;;5117136;28;20441;-68
2021/12/15 07:45:37;;;;;;;26.63;16.43;;;9.40;99.90;;;;;;5116557;28;20885;-68
2021/12/15 07:48:06;;;;;;;25.60;16.63;;;9.40;99.90;;;;;;5116428;28;20437;-69
2021/12/15 07:50:34;;;;;;;26.40;17.33;;;9.40;99.90;;;;;;5115560;28;20825;-69
2021/12/15 07:53:02;;;;;;;25.33;16.60;;;9.30;99.90;;;;;;5115776;28;20465;-66
2021/12/15 07:55:31;;;;;;;31.43;17.53;;;9.30;99.90;;;;;;5116150;28;20835;-68
2021/12/15 07:57:58;;;;;;;24.43;16.27;;;9.30;99.90;;;;;;5116478;28;20787;-68
2021/12/15 08:00:25;;;;;;;25.03;16.10;;;9.30;99.90;;;;;;5116096;28;20529;-68
2021/12/15 08:02:53;;;;;;;22.37;15.43;;;9.30;99.90;;;;;;5116298;28;20451;-68
2021/12/15 08:05:20;;;;;;;25.57;15.77;;;9.40;99.90;;;;;;5116403;28;20509;-67
2021/12/15 08:07:47;;;;;;;28.13;17.37;;;9.40;99.90;;;;;;5115791;28;20515;-68
2021/12/15 08:10:16;;;;;;;33.20;17.43;;;9.40;99.90;;;;;;5115365;28;20904;-68
2021/12/15 08:12:45;;;;;;;27.53;16.80;;;9.40;99.90;;;;;;5115198;28;20472;-68
2021/12/15 08:15:14;;;;;;;24.20;16.10;;;9.40;99.90;;;;;;5115014;28;20521;-68
2021/12/15 08:17:43;;;;;;;26.53;17.57;;;9.40;99.90;;;;;;5115669;28;20452;-68
2021/12/15 08:20:13;;;;;;;28.33;16.80;;;9.40;99.90;;;;;;5115530;28;20480;-67
2021/12/15 08:22:40;;;;;;;24.97;16.53;;;9.40;99.90;;;;;;5115416;28;20460;-68
2021/12/15 08:25:09;;;;;;;28.40;17.37;;;9.40;99.90;;;;;;5115915;28;20456;-68
2021/12/15 08:27:36;;;;;;;27.83;16.80;;;9.40;99.90;;;;;;5115655;28;20453;-68
2021/12/15 08:30:08;;;;;;;28.60;17.10;;;9.40;99.90;;;;;;5115990;28;20517;-69
2021/12/15 08:32:35;;;;;;;26.50;16.10;;;9.30;99.90;;;;;;5116053;28;20782;-67
2021/12/15 08:35:02;;;;;;;24.33;15.97;;;9.40;99.90;;;;;;5115829;28;20583;-69
2021/12/15 08:37:29;;;;;;;24.60;16.07;;;9.40;99.90;;;;;;5116386;28;20497;-68
2021/12/15 08:39:56;;;;;;;27.30;17.37;;;9.30;99.90;;;;;;5116443;28;20456;-68
2021/12/15 08:42:23;;;;;;;26.80;16.93;;;9.30;99.90;;;;;;5117468;28;20780;-69
2021/12/15 08:44:50;;;;;;;25.47;16.60;;;9.30;99.90;;;;;;5117337;28;20466;-68
2021/12/15 08:47:19;;;;;;;25.90;16.03;;;9.40;99.90;;;;;;5115674;28;20452;-68
2021/12/15 08:49:46;;;;;;;24.27;15.40;;;9.40;99.90;;;;;;5115971;28;20533;-68
2021/12/15 08:52:13;;;;;;;27.23;16.60;;;9.40;99.90;;;;;;5114110;28;20541;-70
2021/12/15 08:54:41;;;;;;;31.47;16.43;;;9.40;99.90;;;;;;5114937;28;20505;-69
2021/12/15 08:57:10;;;;;;;27.03;18.20;;;9.40;99.90;;;;;;5115545;28;20456;-69
2021/12/15 08:59:37;;;;;;;27.63;18.90;;;9.40;99.90;;;;;;5114961;28;20453;-68
2021/12/15 09:02:05;;;;;;;30.83;18.63;;;9.40;99.90;;;;;;5115183;28;20782;-68
2021/12/15 09:04:34;;;;;;;30.77;18.30;;;9.50;99.90;;;;;;5115531;28;20513;-68
2021/12/15 09:07:01;;;;;;;33.57;21.10;;;9.50;99.90;;;;;;5115012;28;20505;-69
2021/12/15 09:09:28;;;;;;;37.13;22.60;;;9.50;99.90;;;;;;5115553;28;20852;-68
2021/12/15 09:11:56;;;;;;;35.03;21.27;;;9.50;99.90;;;;;;5115739;28;20476;-69
2021/12/15 09:14:23;;;;;;;33.00;20.50;;;9.60;99.90;;;;;;5116472;28;20513;-69
2021/12/15 09:16:54;;;;;;;36.57;21.93;;;9.50;99.90;;;;;;5117130;28;20513;-68
2021/12/15 09:19:21;;;;;;;29.73;19.63;;;9.60;99.90;;;;;;5117279;28;20444;-68
2021/12/15 09:21:51;;;;;;;30.30;19.03;;;9.60;99.90;;;;;;5115762;28;20448;-69
2021/12/15 09:24:19;;;;;;;30.27;19.90;;;9.60;99.90;;;;;;5115441;28;20503;-68
2021/12/15 09:26:47;;;;;;;28.60;18.23;;;9.60;99.90;;;;;;5115069;28;20488;-68
2021/12/15 09:29:14;;;;;;;30.80;18.50;;;9.60;99.90;;;;;;5116159;28;20456;-68
2021/12/15 09:31:41;;;;;;;31.67;18.50;;;9.60;99.90;;;;;;5114530;28;20516;-68
2021/12/15 09:34:11;;;;;;;32.13;18.50;;;9.60;99.90;;;;;;5114807;28;20480;-68
2021/12/15 09:36:38;;;;;;;29.10;16.90;;;9.60;99.90;;;;;;5114623;28;20936;-67
2021/12/15 09:39:10;;;;;;;30.97;18.60;;;9.60;99.90;;;;;;5114074;28;20457;-68
2021/12/15 09:41:38;;;;;;;30.37;18.33;;;9.60;99.90;;;;;;5114488;28;20491;-68
2021/12/15 09:44:09;;;;;;;28.20;17.60;;;9.60;99.90;;;;;;5114019;28;20520;-67
2021/12/15 09:47:03;;;;;;;30.80;17.77;;;9.60;99.90;;;;;;5114689;28;20517;-68
2021/12/15 10:01:59;;;;;;;36.00;17.87;;;9.70;99.90;;;;;;5114213;28;20432;-69
2021/12/15 10:03:34;;;;;;;32.03;19.70;;;9.60;99.90;;;;;;5116685;28;20479;-67
2021/12/15 10:06:19;;;;;;;28.07;17.40;;;9.60;99.90;;;;;;5118409;28;20780;-68
2021/12/15 10:19:51;;;;;;;34.50;19.13;;;9.70;99.90;;;;;;5118039;28;20461;-68
2021/12/15 10:22:29;;;;;;;28.80;19.00;;;9.70;99.90;;;;;;5117796;28;20432;-68
2021/12/15 10:25:00;;;;;;;29.97;18.47;;;9.70;99.90;;;;;;5117701;28;20447;-67
2021/12/15 10:27:40;;;;;;;27.10;18.57;;;9.70;99.90;;;;;;5118858;28;20459;-67
2021/12/15 10:30:13;;;;;;;31.70;17.77;;;9.70;99.90;;;;;;5117786;28;20485;-68
2021/12/15 10:32:41;;;;;;;31.23;18.00;;;9.70;99.90;;;;;;5118043;28;20542;-68
2021/12/15 10:35:11;;;;;;;29.17;17.43;;;9.70;99.90;;;;;;5117621;28;20513;-68
2021/12/15 10:37:39;;;;;;;29.60;16.90;;;9.70;99.90;;;;;;5117353;28;20511;-68
2021/12/15 10:40:21;;;;;;;32.37;17.60;;;9.80;99.90;;;;;;5117956;28;20860;-68
2021/12/15 10:43:01;;;;;;;25.77;16.97;;;9.80;99.90;;;;;;5117800;28;20437;-68
2021/12/15 10:45:35;;;;;;;28.50;16.63;;;9.80;99.90;;;;;;5117447;28;20489;-68
2021/12/15 10:48:02;;;;;;;23.40;15.00;;;9.80;99.90;;;;;;5117578;28;20440;-68
2021/12/15 10:50:29;;;;;;;26.93;17.07;;;9.80;99.90;;;;;;5117734;28;20480;-68
2021/12/15 10:53:01;;;;;;;24.63;15.43;;;9.80;99.90;;;;;;5117157;28;20526;-68
2021/12/15 10:55:31;;;;;;;25.73;15.40;;;9.90;99.90;;;;;;5116929;28;20868;-68
2021/12/15 10:58:00;;;;;;;23.90;15.30;;;9.90;99.90;;;;;;5116982;28;20456;-67
2021/12/15 11:00:35;;;;;;;23.53;14.10;;;9.90;99.90;;;;;;5117488;28;20498;-67
2021/12/15 11:03:05;;;;;;;23.83;16.03;;;10.00;99.90;;;;;;5117008;28;20497;-68
2021/12/15 11:05:32;;;;;;;22.70;14.77;;;10.00;99.90;;;;;;5116685;28;20529;-68
2021/12/15 11:08:01;;;;;;;23.63;13.70;;;10.00;99.90;;;;;;5117125;28;20484;-68
2021/12/15 11:10:31;;;;;;;20.83;14.10;;;10.00;99.90;;;;;;5116990;28;20452;-68
2021/12/15 11:13:02;;;;;;;23.73;15.03;;;10.00;99.90;;;;;;5116713;28;20471;-67
2021/12/15 11:15:33;;;;;;;20.47;14.20;;;10.00;99.90;;;;;;5116044;28;20456;-67
2021/12/15 11:18:02;;;;;;;22.13;14.07;;;10.00;99.90;;;;;;5116590;28;20521;-68
2021/12/15 11:20:31;;;;;;;19.53;13.37;;;10.00;99.90;;;;;;5116756;28;20470;-68
2021/12/15 11:23:01;;;;;;;19.77;14.03;;;10.00;99.90;;;;;;5116424;28;20924;-69
2021/12/15 11:25:48;;;;;;;18.90;13.00;;;10.00;99.90;;;;;;5116578;27;20452;-68
2021/12/15 11:28:21;;;;;;;27.73;14.40;;;10.00;99.90;;;;;;5116177;28;20437;-68
2021/12/15 11:30:55;;;;;;;24.00;14.50;;;10.10;99.90;;;;;;5120143;28;20771;-70
2021/12/15 11:33:29;;;;;;;26.70;12.90;;;10.10;99.90;;;;;;5124449;28;20533;-68
2021/12/15 11:36:01;;;;;;;18.00;13.23;;;10.20;99.90;;;;;;5126822;28;20437;-68
2021/12/15 11:38:31;;;;;;;20.07;13.13;;;10.20;99.90;;;;;;5121576;28;20437;-68
2021/12/15 11:41:09;;;;;;;19.77;13.10;;;10.20;99.90;;;;;;5120802;27;20448;-69
2021/12/15 11:43:42;;;;;;;18.67;12.70;;;10.30;99.90;;;;;;5118650;28;20437;-68
2021/12/15 11:46:22;;;;;;;19.37;14.27;;;10.30;99.90;;;;;;5117192;28;20441;-72
2021/12/15 11:48:52;;;;;;;19.33;13.50;;;10.30;99.90;;;;;;5115925;28;20576;-69
2021/12/15 11:51:38;;;;;;;26.00;13.77;;;10.40;99.90;;;;;;5116892;28;20772;-68
2021/12/15 11:54:14;;;;;;;18.17;13.17;;;10.40;99.90;;;;;;5116610;28;20475;-69
2021/12/15 11:56:42;;;;;;;16.50;12.57;;;10.40;99.90;;;;;;5116551;28;20433;-68
2021/12/15 11:59:22;;;;;;;19.20;13.73;;;10.40;99.90;;;;;;5116144;28;20522;-69
2021/12/15 12:01:59;;;;;;;24.07;14.40;;;10.40;99.90;;;;;;5116983;28;20444;-69
2021/12/15 12:04:33;;;;;;;18.40;13.47;;;10.40;99.90;;;;;;5115653;28;20872;-69
2021/12/15 12:07:15;;;;;;;17.77;12.90;;;10.40;99.90;;;;;;5116047;28;20781;-69
2021/12/15 12:09:46;;;;;;;19.23;12.50;;;10.40;99.90;;;;;;5115665;28;20437;-68
2021/12/15 12:12:15;;;;;;;16.30;11.77;;;10.50;99.90;;;;;;5115848;28;20513;-69
2021/12/15 12:14:49;;;;;;;14.93;11.30;;;10.50;99.90;;;;;;5115390;28;20456;-68
2021/12/15 12:17:19;;;;;;;12.70;10.10;;;10.60;99.90;;;;;;5115801;27;20444;-69
2021/12/15 12:19:51;;;;;;;14.27;10.37;;;10.60;99.90;;;;;;5115535;28;20476;-68
2021/12/15 12:22:20;;;;;;;13.90;10.90;;;10.70;99.90;;;;;;5115938;28;20507;-68
2021/12/15 12:24:50;;;;;;;17.27;13.30;;;10.70;99.90;;;;;;5115823;28;20452;-68
2021/12/15 12:27:18;;;;;;;15.30;11.80;;;10.70;99.90;;;;;;5115774;28;20456;-67
2021/12/15 12:29:47;;;;;;;17.90;11.77;;;10.80;99.90;;;;;;5115300;28;20461;-68
2021/12/15 12:32:14;;;;;;;15.87;11.03;;;10.70;99.90;;;;;;5115684;28;20517;-69
2021/12/15 12:34:43;;;;;;;13.77;10.23;;;10.80;99.90;;;;;;5115353;28;20553;-69
2021/12/15 12:37:12;;;;;;;13.67;9.80;;;10.70;99.90;;;;;;5115799;28;20499;-69
2021/12/15 12:39:40;;;;;;;15.97;10.73;;;10.70;99.90;;;;;;5115488;28;20488;-68
2021/12/15 12:42:08;;;;;;;18.50;11.97;;;10.70;99.90;;;;;;5115616;28;20896;-68
2021/12/15 12:44:38;;;;;;;16.67;12.00;;;10.70;99.90;;;;;;5115143;28;20517;-68
2021/12/15 12:47:20;;;;;;;17.00;11.30;;;10.70;99.90;;;;;;5114858;28;20502;-69
2021/12/15 12:50:11;;;;;;;16.17;11.97;;;10.60;99.90;;;;;;5115475;28;20502;-69
2021/12/15 13:01:19;;;;;;;15.43;11.33;;;10.60;99.90;;;;;;5114841;28;20431;-68
2021/12/15 13:03:53;;;;;;;14.60;10.97;;;10.60;99.90;;;;;;5114971;28;20498;-68
2021/12/15 13:06:22;;;;;;;16.93;11.17;;;10.60;99.90;;;;;;5114154;28;20531;-68
2021/12/15 13:08:54;;;;;;;14.20;10.40;;;10.60;99.90;;;;;;5114951;28;20517;-67
2021/12/15 13:11:34;;;;;;;13.13;10.00;;;10.60;99.90;;;;;;5114438;28;20441;-67
2021/12/15 13:14:04;;;;;;;14.50;10.40;;;10.60;99.90;;;;;;5114685;28;20480;-67
2021/12/15 13:16:39;;;;;;;16.63;11.30;;;10.60;99.90;;;;;;5114960;28;20815;-67
2021/12/15 13:19:18;;;;;;;14.60;10.43;;;10.70;99.90;;;;;;5115463;28;20459;-69
2021/12/15 13:21:57;;;;;;;17.83;11.27;;;10.70;99.90;;;;;;5114832;28;20451;-67
2021/12/15 13:30:35;;;;;;;15.83;10.40;;;10.70;99.90;;;;;;5114696;28;20424;-67
2021/12/15 13:33:10;;;;;;;17.33;10.87;;;10.70;99.90;;;;;;5114692;28;20472;-68
2021/12/15 13:35:42;;;;;;;14.27;10.87;;;10.70;99.90;;;;;;5114907;28;20448;-68
2021/12/15 13:38:10;;;;;;;16.33;11.53;;;10.70;99.90;;;;;;5116821;28;20487;-68
2021/12/15 13:41:04;;;;;;;17.57;12.20;;;10.70;99.90;;;;;;5118854;28;20456;-69
2021/12/15 13:43:50;;;;;;;19.20;12.93;;;10.80;99.90;;;;;;5119029;28;20432;-68
2021/12/15 13:46:42;;;;;;;19.70;13.00;;;10.70;99.90;;;;;;5118616;28;20471;-68
2021/12/15 13:49:23;;;;;;;20.60;13.80;;;10.70;99.90;;;;;;5118522;28;20445;-68
2021/12/15 13:52:11;;;;;;;23.00;15.43;;;10.70;99.90;;;;;;5117996;28;20484;-68
2021/12/15 13:55:01;;;;;;;23.33;13.70;;;10.70;99.90;;;;;;5118910;28;20776;-69
2021/12/15 13:57:33;;;;;;;21.10;13.13;;;10.70;99.90;;;;;;5119042;28;20462;-69
2021/12/15 14:00:11;;;;;;;21.10;14.10;;;10.80;99.90;;;;;;5119330;28;20540;-67
2021/12/15 14:02:41;;;;;;;19.40;13.63;;;10.80;99.90;;;;;;5118730;28;20440;-68